KDNV/DNV METAR and TAF weather

Enter ICAO airport designator
Station Type Date Time Source
KDNV METAR 2019/12/11 17:35 UTC NOAA

KDNV 111735Z AUTO 28005KT 10SM OVC048 M02/M08 A3044 RMK AO2 T10251082


Station Type Date Time Source
KDNV Decoded METAR 2019/12/11 17:35 UTC NOAA

Danville, Vermilion County Airport, IL, United States (KDNV) 40-11-58N 087-35-44W
Dec 11, 2019 - 12:35 PM EST / 2019.12.11 1735 UTC
Wind: from the W (280 degrees) at 6 MPH (5 KT):0
Visibility: 10 mile(s):0
Sky conditions: overcast
Temperature: 27.5 F (-2.5 C)
Windchill: 21 F (-6 C):1
Dew Point: 17.2 F (-8.2 C)
Relative Humidity: 64%
Pressure (altimeter): 30.44 in. Hg (1030 hPa)
ob: KDNV 111735Z AUTO 28005KT 10SM OVC048 M02/M08 A3044 RMK AO2 T10251082
cycle: 17

Station Type Date Time Source
KDNV TAF UTC NOAA

Error!

Example: see airport list